createdAt,value
2018-02-10T00:03:06.823Z,99.10
2018-02-10T00:07:50.162Z,99.10
2018-02-10T00:12:33.518Z,99.30
2018-02-10T00:17:16.914Z,99.20
2018-02-10T00:22:00.240Z,99.10
2018-02-10T00:26:43.598Z,99.10
2018-02-10T00:31:26.931Z,99.30
2018-02-10T00:36:10.272Z,98.80
2018-02-10T00:40:53.570Z,98.90
2018-02-10T00:45:36.913Z,99.10
2018-02-10T00:50:21.037Z,99.20
2018-02-10T00:55:05.136Z,99.30
2018-02-10T00:59:48.479Z,99.30
2018-02-10T01:04:31.786Z,99.70
2018-02-10T01:09:15.151Z,99.60
2018-02-10T01:14:01.270Z,99.30
2018-02-10T01:18:44.839Z,99.20
2018-02-10T01:23:28.220Z,99.40
2018-02-10T01:28:12.361Z,99.30
2018-02-10T01:37:49.958Z,99.00
2018-02-10T01:42:33.498Z,98.80
2018-02-10T01:47:27.374Z,98.10
2018-02-10T01:52:14.862Z,98.10
2018-02-10T01:57:00.562Z,98.10
2018-02-10T02:01:45.352Z,98.20
2018-02-10T02:06:29.190Z,98.30
2018-02-10T02:11:12.694Z,98.60
2018-02-10T02:15:57.113Z,98.60
2018-02-10T02:20:40.576Z,98.20
2018-02-10T02:25:24.853Z,98.20
2018-02-10T02:35:05.127Z,98.10
2018-02-10T02:39:48.748Z,98.20
2018-02-10T02:44:32.293Z,98.20
2018-02-10T02:49:15.872Z,98.40
2018-02-10T02:54:00.065Z,98.50
2018-02-10T02:58:43.737Z,98.50
2018-02-10T03:03:28.261Z,98.60
2018-02-10T03:08:11.655Z,98.40
2018-02-10T03:12:56.350Z,98.50
2018-02-10T03:17:40.651Z,98.50
2018-02-10T03:22:25.349Z,98.30
2018-02-10T03:27:09.719Z,98.20
2018-02-10T03:31:53.187Z,98.40
2018-02-10T03:36:36.872Z,98.30
2018-02-10T03:41:20.763Z,98.10
2018-02-10T03:46:04.229Z,97.80
2018-02-10T03:50:47.831Z,97.80
2018-02-10T03:55:32.058Z,97.60
2018-02-10T04:00:15.791Z,97.90
2018-02-10T04:04:59.346Z,97.60
2018-02-10T04:09:43.896Z,97.70
2018-02-10T04:14:27.340Z,97.80
2018-02-10T04:19:11.089Z,98.40
2018-02-10T04:23:54.573Z,98.40
2018-02-10T04:28:38.293Z,98.60
2018-02-10T04:33:22.178Z,97.90
2018-02-10T04:38:06.416Z,97.70
2018-02-10T04:42:50.244Z,97.70
2018-02-10T04:47:36.763Z,97.60
2018-02-10T04:52:21.977Z,97.60
2018-02-10T04:57:08.455Z,97.70
2018-02-10T05:01:52.555Z,97.50
2018-02-10T05:06:35.931Z,97.80
2018-02-10T05:11:21.595Z,97.80
2018-02-10T05:16:06.506Z,98.00
2018-02-10T05:20:51.102Z,97.90
2018-02-10T05:25:34.794Z,97.90
2018-02-10T05:30:20.044Z,98.10
2018-02-10T05:35:03.429Z,97.80
2018-02-10T05:39:49.807Z,98.00
2018-02-10T05:44:33.471Z,97.90
2018-02-10T05:49:18.473Z,98.00
2018-02-10T05:54:02.824Z,98.20
2018-02-10T05:58:47.153Z,98.40
2018-02-10T06:03:30.554Z,98.40
2018-02-10T06:08:13.958Z,97.90
2018-02-10T06:12:59.580Z,97.90
2018-02-10T06:17:44.144Z,97.60
2018-02-10T06:22:28.894Z,97.50
2018-02-10T06:27:12.515Z,97.10
2018-02-10T06:31:56.280Z,96.80
2018-02-10T06:36:41.089Z,97.20
2018-02-10T06:41:27.725Z,97.10
2018-02-10T06:46:11.323Z,96.90
2018-02-10T06:50:55.819Z,96.60
2018-02-10T07:16:41.847Z,94.20
2018-02-10T07:21:34.626Z,94.20
2018-02-10T07:33:05.280Z,94.90
2018-02-10T07:37:50.597Z,94.60
2018-02-10T07:42:54.860Z,95.00
2018-02-10T07:47:38.203Z,94.20
2018-02-10T07:57:58.870Z,93.40
2018-02-10T08:02:43.003Z,92.60
2018-02-10T08:07:26.346Z,92.60
2018-02-10T08:12:09.630Z,92.20
2018-02-10T08:17:01.730Z,92.70
2018-02-10T08:21:45.356Z,92.40
2018-02-10T08:26:29.669Z,92.30
2018-02-10T08:31:13.327Z,92.30
2018-02-10T08:35:58.021Z,91.50
2018-02-10T08:40:45.858Z,91.40
2018-02-10T08:45:29.814Z,92.50
2018-02-10T08:50:13.922Z,91.90
2018-02-10T08:54:57.603Z,91.90
2018-02-10T08:59:45.994Z,92.20
2018-02-10T09:04:30.279Z,92.10
2018-02-10T09:09:14.463Z,91.80
2018-02-10T09:13:58.772Z,91.50
2018-02-10T09:18:42.629Z,91.30
2018-02-10T09:23:26.298Z,91.00
2018-02-10T09:28:11.851Z,90.80
2018-02-10T09:32:56.400Z,90.90
2018-02-10T09:37:40.135Z,91.20
2018-02-10T09:42:24.911Z,91.10
2018-02-10T09:47:09.154Z,91.70
2018-02-10T09:51:52.972Z,92.10
2018-02-10T09:56:36.311Z,92.00
2018-02-10T10:01:19.758Z,92.20
2018-02-10T10:06:03.326Z,92.00
2018-02-10T10:10:46.692Z,92.20
2018-02-10T10:15:30.141Z,92.60
2018-02-10T10:20:13.506Z,92.20
2018-02-10T10:24:57.632Z,92.20
2018-02-10T10:29:40.936Z,92.20
2018-02-10T10:34:24.516Z,92.10
2018-02-10T10:39:07.830Z,91.20
2018-02-10T10:43:51.269Z,90.90
2018-02-10T10:48:34.686Z,90.30
2018-02-10T10:53:18.098Z,89.70
2018-02-10T10:58:01.702Z,90.50
2018-02-10T11:02:46.357Z,90.10
2018-02-10T11:07:29.811Z,90.10
2018-02-10T11:12:13.529Z,89.60
2018-02-10T11:16:56.912Z,90.30
2018-02-10T11:21:40.370Z,89.30
2018-02-10T11:26:23.998Z,89.40
2018-02-10T11:31:07.751Z,88.10
2018-02-10T11:35:52.041Z,85.10
2018-02-10T11:40:35.461Z,85.40
2018-02-10T11:45:18.890Z,85.20
2018-02-10T11:50:03.066Z,84.10
2018-02-10T11:54:46.453Z,84.00
2018-02-10T12:04:34.167Z,83.40
2018-02-10T12:09:17.555Z,84.60
2018-02-10T12:14:17.837Z,82.80
2018-02-10T12:29:32.395Z,81.50
2018-02-10T12:34:15.836Z,81.90
2018-02-10T12:39:03.201Z,81.90
2018-02-10T12:44:38.865Z,80.80
2018-02-10T12:54:50.566Z,82.00
2018-02-10T12:59:33.856Z,82.00
2018-02-10T13:04:17.297Z,83.20
2018-02-10T13:09:20.343Z,83.60
2018-02-10T13:14:03.737Z,83.60
2018-02-10T13:18:47.986Z,84.20
2018-02-10T13:23:31.436Z,84.20
2018-02-10T13:28:14.757Z,84.30
2018-02-10T13:32:58.152Z,84.50
2018-02-10T13:37:41.511Z,84.80
2018-02-10T13:42:24.939Z,84.10
2018-02-10T13:47:08.297Z,83.10
2018-02-10T13:51:51.756Z,83.00
2018-02-10T13:56:35.224Z,84.70
2018-02-10T14:06:43.999Z,83.10
2018-02-10T14:11:28.108Z,84.10
2018-02-10T14:16:11.521Z,84.10
2018-02-10T14:20:54.929Z,85.50
2018-02-10T14:25:38.333Z,84.80
2018-02-10T14:30:21.747Z,85.10
2018-02-10T14:35:05.989Z,85.90
2018-02-10T14:39:50.178Z,85.80
2018-02-10T14:44:33.629Z,85.80
2018-02-10T14:49:17.024Z,86.80
2018-02-10T14:54:00.384Z,87.60
2018-02-10T14:58:43.777Z,87.10
2018-02-10T15:03:27.158Z,87.20
2018-02-10T15:08:10.605Z,87.20
2018-02-10T15:12:54.746Z,89.00
2018-02-10T15:17:38.112Z,88.80
2018-02-10T15:22:21.883Z,88.80
2018-02-10T15:27:05.484Z,89.70
2018-02-10T15:32:01.500Z,89.50
2018-02-10T15:36:44.855Z,89.50
2018-02-10T15:41:28.195Z,90.20
2018-02-10T15:46:11.592Z,90.70
2018-02-10T15:50:54.962Z,90.90
2018-02-10T15:55:38.334Z,91.10
2018-02-10T16:00:21.672Z,91.40
2018-02-10T16:05:06.019Z,92.40
2018-02-10T16:09:49.403Z,92.40
2018-02-10T16:14:33.594Z,92.80
2018-02-10T16:19:17.171Z,92.80
2018-02-10T16:24:00.631Z,93.00
2018-02-10T16:28:45.536Z,94.30
2018-02-10T16:33:29.007Z,94.30
2018-02-10T16:38:13.788Z,94.40
2018-02-10T16:42:58.039Z,94.30
2018-02-10T16:47:41.539Z,94.20
2018-02-10T16:52:25.669Z,94.10
2018-02-10T16:57:09.056Z,95.00
2018-02-10T17:01:52.555Z,95.40
2018-02-10T17:06:35.954Z,95.70
2018-02-10T17:11:19.544Z,94.90
2018-02-10T17:16:03.210Z,94.50
2018-02-10T17:20:48.900Z,94.30
2018-02-10T17:25:36.240Z,93.20
2018-02-10T17:30:21.471Z,93.20
2018-02-10T17:35:08.727Z,93.50
2018-02-10T17:39:52.730Z,93.60
2018-02-10T17:44:36.898Z,93.60
2018-02-10T17:49:21.895Z,93.40
2018-02-10T17:54:05.384Z,93.40
2018-02-10T17:58:51.834Z,93.50
2018-02-10T18:03:37.418Z,93.50
2018-02-10T18:08:22.147Z,93.50
2018-02-10T18:13:09.831Z,93.60
2018-02-10T18:17:55.645Z,93.80
2018-02-10T18:22:39.137Z,93.80
2018-02-10T18:27:24.116Z,94.40
2018-02-10T18:32:09.969Z,94.40
2018-02-10T18:36:54.022Z,94.30
2018-02-10T18:41:45.737Z,94.30
2018-02-10T18:46:29.531Z,93.90
2018-02-10T18:51:14.494Z,94.30
2018-02-10T18:55:59.409Z,94.20
2018-02-10T19:00:43.802Z,94.20
2018-02-10T19:05:29.965Z,94.30
2018-02-10T19:10:14.392Z,94.50
2018-02-10T19:14:58.884Z,94.40
2018-02-10T19:19:45.422Z,94.40
2018-02-10T19:24:29.006Z,94.70
2018-02-10T19:29:12.868Z,94.70
2018-02-10T19:33:59.876Z,94.40
2018-02-10T19:38:43.629Z,94.70
2018-02-10T19:43:29.308Z,95.10
2018-02-10T19:48:14.965Z,94.40
2018-02-10T19:52:59.792Z,94.40
2018-02-10T19:57:47.494Z,94.30
2018-02-10T20:02:34.121Z,94.50
2018-02-10T20:07:17.614Z,94.50
2018-02-10T20:12:01.357Z,94.50
2018-02-10T20:16:44.949Z,94.40
2018-02-10T20:21:28.372Z,94.50
2018-02-10T20:26:11.948Z,94.50
2018-02-10T20:30:55.320Z,94.60
2018-02-10T20:35:39.091Z,94.20
2018-02-10T20:40:22.675Z,93.60
2018-02-10T20:45:06.823Z,93.40
2018-02-10T20:49:50.252Z,93.40
2018-02-10T20:54:33.644Z,93.50
2018-02-10T20:59:17.258Z,93.30
2018-02-10T21:04:00.943Z,93.40
2018-02-10T21:08:44.419Z,93.60
2018-02-10T21:13:28.401Z,93.70
2018-02-10T21:18:11.807Z,93.70
2018-02-10T21:22:55.926Z,93.80
2018-02-10T21:27:39.350Z,93.80
2018-02-10T21:32:22.931Z,93.70
2018-02-10T21:37:06.613Z,93.70
2018-02-10T21:41:49.999Z,93.50
2018-02-10T21:46:33.354Z,93.40
2018-02-10T21:51:16.783Z,93.30
2018-02-10T21:56:00.333Z,93.60
2018-02-10T22:00:43.740Z,93.70
2018-02-10T22:05:27.084Z,93.70
2018-02-10T22:10:10.455Z,94.00
2018-02-10T22:14:53.794Z,94.10
2018-02-10T22:19:37.158Z,94.30
2018-02-10T22:24:20.462Z,94.60
2018-02-10T22:29:03.807Z,94.80
2018-02-10T22:33:47.202Z,94.90
2018-02-10T22:38:31.283Z,95.10
2018-02-10T22:43:14.607Z,95.10
2018-02-10T22:47:57.940Z,95.10
2018-02-10T22:52:41.274Z,95.30
2018-02-10T22:57:24.700Z,95.10
2018-02-10T23:02:08.788Z,95.10
2018-02-10T23:06:52.119Z,95.10
2018-02-10T23:11:35.510Z,95.20
2018-02-10T23:16:18.804Z,95.10
2018-02-10T23:21:02.147Z,95.30
2018-02-10T23:25:45.483Z,95.40
2018-02-10T23:30:28.849Z,95.40
2018-02-10T23:35:12.173Z,95.60
2018-02-10T23:39:55.492Z,95.50
2018-02-10T23:44:39.593Z,95.40
2018-02-10T23:49:22.931Z,95.40
2018-02-10T23:54:06.424Z,95.40
2018-02-10T23:58:49.782Z,95.60
